WetterOnline ( http://www.wetteronline.de )

Wetter aktuell Köln

Aktuelles Wetter: Roleber (162m)

6-stündlich | Neueste Meldungen
Ortszeit Temperatur Wetter
Mi, 18.07. 8:00 16.2° C leicht bewölkt
Mi, 18.07. 2:00 14.6° C fast wolkenlos
Di, 17.07. 20:00 17.4° C leichter Regen
Di, 17.07. 14:00 27.6° C leicht bewölkt
Di, 17.07. 8:00 20.0° C wolkig
Di, 17.07. 2:00 16.8° C leicht bewölkt
Mo, 16.07. 20:00 27.7° C leicht bewölkt
Mo, 16.07. 14:00 27.2° C wolkenlos
Ortszeit Temperatur Wetter
Mi, 18.07. 8:30 17.0° C leicht bewölkt
Mi, 18.07. 8:20 17.0° C leicht bewölkt
Mi, 18.07. 8:10 16.6° C fast wolkenlos
Mi, 18.07. 8:00 16.2° C leicht bewölkt
Mi, 18.07. 7:50 16.2° C leicht bewölkt
Mi, 18.07. 7:40 15.9° C leicht bewölkt
Mi, 18.07. 7:30 15.4° C fast wolkenlos
Mi, 18.07. 7:00 14.0° C fast wolkenlos
Mi, 18.07. 6:30 13.0° C leicht bewölkt
Mi, 18.07. 6:00 12.4° C fast wolkenlos
Mi, 18.07. 5:30 13.0° C fast wolkenlos
Ortszeit Relative Feuchte Sichtweite
Mi, 18.07. 8:00 79% 15 km
Mi, 18.07. 2:00 93% 8 km
Di, 17.07. 20:00 90% 6 km
Di, 17.07. 14:00 39% 40 km
Di, 17.07. 8:00 60% 30 km
Di, 17.07. 2:00 63% 45 km
Mo, 16.07. 20:00 24% 70 km
Mo, 16.07. 14:00 33% 35 km
Ortszeit Relative Feuchte Sichtweite
Mi, 18.07. 8:30 73% 15 km
Mi, 18.07. 8:20 73% -
Mi, 18.07. 8:10 72% -
Mi, 18.07. 8:00 79% 15 km
Mi, 18.07. 7:50 79% -
Mi, 18.07. 7:40 80% -
Mi, 18.07. 7:30 85% 11 km
Mi, 18.07. 7:00 92% 5.0 km
Mi, 18.07. 6:30 96% 3.7 km
Mi, 18.07. 6:00 95% 4.8 km
Mi, 18.07. 5:30 94% 4.7 km
Ortszeit Niederschlagsmenge Niederschlagsart
Mi, 18.07. 8:00 0.4 l/m2 in 12 Std. -
Mi, 18.07. 2:00 0.4 l/m2 in 6 Std. Regen
Di, 17.07. 20:00 2 l/m2 in 12 Std. Regen
Di, 17.07. 14:00 0.0 l/m2 in 6 Std. -
Di, 17.07. 8:00 0.1 l/m2 in 12 Std. Sprühregen
Di, 17.07. 2:00 0.0 l/m2 in 6 Std. -
Mo, 16.07. 20:00 0.0 l/m2 in 12 Std. -
Mo, 16.07. 14:00 0.0 l/m2 in 6 Std. -
Ortszeit Niederschlagsmenge Niederschlagsart
Mi, 18.07. 8:30 0.0 l/m2 in 1 Std. -
Mi, 18.07. 8:20 keine Meldung -
Mi, 18.07. 8:10 keine Meldung -
Mi, 18.07. 8:00 0.0 l/m2 in 1 Std. -
Mi, 18.07. 7:50 keine Meldung -
Mi, 18.07. 7:40 keine Meldung -
Mi, 18.07. 7:30 0.0 l/m2 in 1 Std. -
Mi, 18.07. 7:00 0.0 l/m2 in 1 Std. -
Mi, 18.07. 6:30 0.0 l/m2 in 1 Std. -
Mi, 18.07. 6:00 0.0 l/m2 in 1 Std. -
Mi, 18.07. 5:30 0.0 l/m2 in 1 Std. -
Ortszeit Stärke Spitze Richtung
km/h Bft. km/h Grad Sektor
Mi, 18.07. 8:00 4 1 11 270° W
Mi, 18.07. 2:00 6 1 9 280° W
Di, 17.07. 20:00 4 1 58 350° N
Di, 17.07. 14:00 11 2 25 340° N
Di, 17.07. 8:00 0 0 11 - -
Di, 17.07. 2:00 4 1 14 110° O
Mo, 16.07. 20:00 7 2 25 330° NW
Mo, 16.07. 14:00 7 2 17 330° NW
Ortszeit Stärke Spitze Richtung
km/h Bft. km/h Grad Sektor
Mi, 18.07. 8:30 0 0 7 - -
Mi, 18.07. 8:20 2 1 - 280° W
Mi, 18.07. 8:10 2 1 - 300° NW
Mi, 18.07. 8:00 4 1 7 270° W
Mi, 18.07. 7:50 4 1 - 270° W
Mi, 18.07. 7:40 4 1 - 270° W
Mi, 18.07. 7:30 4 1 7 260° W
Mi, 18.07. 7:00 6 1 7 220° SW
Mi, 18.07. 6:30 6 1 7 230° SW
Mi, 18.07. 6:00 6 1 11 230° SW
Mi, 18.07. 5:30 7 2 11 230° SW
Ortszeit Untergrenze Bedeckung Gattung
total tief tief mittel hoch
Mi, 18.07. 8:00 1800 m 3/8 1/8 - - -
Mi, 18.07. 2:00 2400 m 1/8 1/8 - - -
Di, 17.07. 20:00 2400 m 8/8 8/8 - - -
Di, 17.07. 14:00 3900 m 2/8 - - - -
Di, 17.07. 8:00 8100 m 8/8 0/8 - - -
Di, 17.07. 2:00 4800 m 5/8 3/8 - - -
Mo, 16.07. 20:00 7200 m 8/8 0/8 - - -
Mo, 16.07. 14:00 - 0/8 0/8 - - -
Ortszeit Bedeckungsgrad in Achtel und Wolkenuntergrenze
Mi, 18.07. 8:30 1(1800m) 3(10500m)
Mi, 18.07. 8:20 1(1800m) 3(10500m)
Mi, 18.07. 8:10 1(1800m) 1(10500m)
Mi, 18.07. 8:00 1(1800m) 3(10500m)
Mi, 18.07. 7:50 1(1800m) 3(10500m)
Mi, 18.07. 7:40 1(2100m) 5(10500m)
Mi, 18.07. 7:30 1(2100m) 2(10500m)
Mi, 18.07. 7:00 1(1800m)
Mi, 18.07. 6:30 2(2100m)
Mi, 18.07. 6:00 1(2400m)
Mi, 18.07. 5:30 1(2400m)
Ortszeit Luftdruck NN (hPa) Tendenz (hPa in 3 Std.)
Mi, 18.07. 8:00 1019 + 0,7
Mi, 18.07. 2:00 1019 + 1,1
Di, 17.07. 20:00 1016 + 1,2
Di, 17.07. 14:00 1014 - 0,2
Di, 17.07. 8:00 1014 + 1,4
Di, 17.07. 2:00 1013 + 0,7
Mo, 16.07. 20:00 1011 - 0,3
Mo, 16.07. 14:00 1012 - 0,7
Ortszeit Luftdruck NN (hPa) Tendenz (hPa in 3 Std.)
Mi, 18.07. 8:30 1020 + 1,0
Mi, 18.07. 8:20 1020 keine Meldung
Mi, 18.07. 8:10 1020 keine Meldung
Mi, 18.07. 8:00 1019 + 0,7
Mi, 18.07. 7:50 1019 keine Meldung
Mi, 18.07. 7:40 1019 keine Meldung
Mi, 18.07. 7:30 1019 + 0,7
Mi, 18.07. 7:00 1019 + 0,4
Mi, 18.07. 6:30 1019 + 0,4
Mi, 18.07. 6:00 1019 + 0,2
Mi, 18.07. 5:30 1019 0,0
Ortszeit Schneehöhe (cm)
Mi, 18.07. 8:00 -
Mi, 18.07. 2:00 -
Di, 17.07. 20:00 -
Di, 17.07. 14:00 -
Di, 17.07. 8:00 -
Di, 17.07. 2:00 -
Mo, 16.07. 20:00 -
Mo, 16.07. 14:00 -
Ortszeit Schneehöhe (cm)
Mi, 18.07. 8:30 -
Mi, 18.07. 8:20 -
Mi, 18.07. 8:10 -
Mi, 18.07. 8:00 -
Mi, 18.07. 7:50 -
Mi, 18.07. 7:40 -
Mi, 18.07. 7:30 -
Mi, 18.07. 7:00 -
Mi, 18.07. 6:30 -
Mi, 18.07. 6:00 -
Mi, 18.07. 5:30 -
Link zu dieser Seite / Seite empfehlen

Das Wetter in ...